Time;durP1;ratioP1;P1;durP2;ratioP2;P2;SDS_P1;SDS_P2;PMS_P1;PMS_P2;Temp;Humidity;BMP_temperature;BMP_pressure;BME280_temperature;BME280_humidity;BME280_pressure;Samples;Min_cycle;Max_cycle;Signal;HPM_P1;HPM_P2
2021/08/30 00:00:34;;;;;;;25.35;17.33;;;;;;;;;;5001803;28;20268;-72
2021/08/30 00:03:00;;;;;;;28.70;16.05;;;;;;;;;;5009224;28;20644;-74
2021/08/30 00:05:25;;;;;;;26.85;15.98;;;;;;;;;;4995969;28;20186;-75
2021/08/30 00:07:50;;;;;;;23.63;15.80;;;;;;;;;;5010504;28;20378;-74
2021/08/30 00:10:16;;;;;;;30.55;16.55;;;;;;;;;;5000098;28;20197;-73
2021/08/30 00:12:42;;;;;;;24.50;16.23;;;;;;;;;;5012461;28;20202;-74
2021/08/30 00:15:10;;;;;;;23.30;15.73;;;;;;;;;;5001121;28;20194;-74
2021/08/30 00:17:35;;;;;;;27.00;16.55;;;;;;;;;;5013002;28;20266;-74
2021/08/30 00:20:02;;;;;;;26.30;16.15;;;;;;;;;;5008121;28;20345;-74
2021/08/30 00:22:28;;;;;;;26.30;15.30;;;;;;;;;;5021956;28;20197;-76
2021/08/30 00:24:53;;;;;;;23.42;15.93;;;;;;;;;;5007705;28;20179;-75
2021/08/30 00:27:18;;;;;;;23.02;15.38;;;;;;;;;;5001859;28;20215;-74
2021/08/30 00:29:44;;;;;;;27.55;15.88;;;;;;;;;;5008739;28;20193;-75
2021/08/30 00:32:09;;;;;;;28.08;16.80;;;;;;;;;;4998070;28;20253;-75
2021/08/30 00:34:35;;;;;;;28.50;16.17;;;;;;;;;;5009324;28;20606;-71
2021/08/30 00:37:01;;;;;;;23.52;15.60;;;;;;;;;;5002434;28;20190;-74
2021/08/30 00:39:26;;;;;;;25.80;16.60;;;;;;;;;;5011125;28;20191;-73
2021/08/30 00:41:58;;;;;;;23.67;15.70;;;;;;;;;;5002076;28;20256;-72
2021/08/30 00:44:24;;;;;;;24.95;15.68;;;;;;;;;;5011703;28;20194;-70
2021/08/30 00:46:50;;;;;;;26.98;16.25;;;;;;;;;;5002427;28;21641;-72
2021/08/30 00:49:15;;;;;;;23.00;16.30;;;;;;;;;;5008978;28;20186;-75
2021/08/30 00:51:41;;;;;;;22.38;16.98;;;;;;;;;;5006165;28;20225;-74
2021/08/30 00:54:08;;;;;;;29.75;17.42;;;;;;;;;;4999722;28;20194;-74
2021/08/30 00:56:34;;;;;;;28.35;17.08;;;;;;;;;;5009125;28;20175;-74
2021/08/30 00:58:59;;;;;;;25.98;16.50;;;;;;;;;;5001598;28;20731;-75
2021/08/30 01:01:24;;;;;;;27.92;16.90;;;;;;;;;;5009595;28;20242;-75
2021/08/30 01:03:50;;;;;;;27.15;17.05;;;;;;;;;;5000040;28;20556;-75
2021/08/30 01:06:45;;;;;;;24.55;16.63;;;;;;;;;;5006513;28;20190;-74
2021/08/30 01:09:33;;;;;;;29.00;17.27;;;;;;;;;;5003198;28;20187;-75
2021/08/30 01:12:13;;;;;;;29.35;17.05;;;;;;;;;;5007383;28;20762;-73
2021/08/30 01:14:48;;;;;;;27.15;16.65;;;;;;;;;;5001559;28;20182;-75
2021/08/30 01:17:16;;;;;;;25.70;16.77;;;;;;;;;;5009338;28;20248;-75
2021/08/30 01:19:48;;;;;;;26.05;16.50;;;;;;;;;;5001175;28;20206;-75
2021/08/30 01:22:15;;;;;;;25.27;16.05;;;;;;;;;;5005966;28;20300;-73
2021/08/30 01:24:41;;;;;;;25.60;16.75;;;;;;;;;;5001782;28;20244;-76
2021/08/30 01:27:07;;;;;;;28.88;16.90;;;;;;;;;;5011181;28;20214;-75
2021/08/30 01:29:39;;;;;;;26.35;16.25;;;;;;;;;;5002673;28;20577;-75
2021/08/30 01:32:28;;;;;;;23.98;16.27;;;;;;;;;;5008355;28;20190;-76
2021/08/30 01:34:57;;;;;;;26.27;15.98;;;;;;;;;;5001648;28;20193;-73
2021/08/30 01:37:23;;;;;;;23.30;16.33;;;;;;;;;;5018924;28;20233;-74
2021/08/30 01:39:49;;;;;;;25.20;16.52;;;;;;;;;;4999043;28;20250;-73
2021/08/30 01:42:15;;;;;;;23.92;16.35;;;;;;;;;;5006011;28;20197;-74
2021/08/30 01:44:40;;;;;;;24.98;16.17;;;;;;;;;;4999614;28;20626;-74
2021/08/30 01:47:07;;;;;;;25.55;16.60;;;;;;;;;;5010629;28;20206;-74
2021/08/30 01:49:32;;;;;;;26.38;16.25;;;;;;;;;;5006815;28;20589;-75
2021/08/30 01:51:58;;;;;;;28.60;16.85;;;;;;;;;;5000367;28;20190;-76
2021/08/30 01:54:24;;;;;;;22.77;16.40;;;;;;;;;;5004650;28;20242;-76
2021/08/30 01:56:53;;;;;;;29.02;16.13;;;;;;;;;;4999731;28;20183;-75
2021/08/30 02:02:08;;;;;;;25.58;17.02;;;;;;;;;;4993951;28;20276;-75
2021/08/30 02:04:34;;;;;;;26.23;16.83;;;;;;;;;;5006920;28;20183;-75
2021/08/30 02:07:01;;;;;;;29.92;18.73;;;;;;;;;;5001833;28;20256;-75
2021/08/30 02:09:27;;;;;;;27.20;17.40;;;;;;;;;;5007793;28;20308;-76
2021/08/30 02:11:52;;;;;;;24.60;17.23;;;;;;;;;;5001674;28;20187;-76
2021/08/30 02:14:19;;;;;;;30.15;17.63;;;;;;;;;;5008843;28;20294;-76
2021/08/30 02:16:48;;;;;;;30.20;17.42;;;;;;;;;;5003287;28;20206;-76
2021/08/30 02:19:34;;;;;;;25.67;17.52;;;;;;;;;;5006585;28;20190;-75
2021/08/30 02:22:03;;;;;;;29.20;16.88;;;;;;;;;;4994389;28;20190;-75
2021/08/30 02:24:39;;;;;;;27.13;17.63;;;;;;;;;;5005332;28;20181;-75
2021/08/30 02:27:16;;;;;;;30.90;18.48;;;;;;;;;;5004854;28;20210;-73
2021/08/30 02:30:00;;;;;;;29.15;16.95;;;;;;;;;;5003613;28;20597;-75
2021/08/30 02:32:27;;;;;;;25.58;18.20;;;;;;;;;;4998411;28;20214;-76
2021/08/30 02:34:58;;;;;;;32.53;18.38;;;;;;;;;;5005888;28;20186;-75
2021/08/30 02:37:25;;;;;;;29.05;18.17;;;;;;;;;;5000575;28;23383;-75
2021/08/30 02:39:52;;;;;;;32.50;18.98;;;;;;;;;;5007240;28;20221;-74
2021/08/30 02:42:18;;;;;;;29.58;18.70;;;;;;;;;;5007048;28;20213;-74
2021/08/30 02:44:45;;;;;;;31.13;18.20;;;;;;;;;;4997210;28;20321;-74
2021/08/30 02:47:13;;;;;;;37.72;19.77;;;;;;;;;;5007600;28;20670;-75
2021/08/30 02:49:43;;;;;;;30.83;18.35;;;;;;;;;;4999270;28;20280;-75
2021/08/30 02:52:10;;;;;;;36.33;19.05;;;;;;;;;;5005041;28;20182;-71
2021/08/30 02:54:37;;;;;;;28.55;20.10;;;;;;;;;;4997368;28;20272;-75
2021/08/30 02:57:05;;;;;;;29.60;19.40;;;;;;;;;;5008869;28;20249;-76
2021/08/30 02:59:32;;;;;;;31.63;18.30;;;;;;;;;;4998651;28;20289;-75
2021/08/30 03:02:01;;;;;;;32.05;18.80;;;;;;;;;;5009784;28;20226;-74
2021/08/30 03:04:29;;;;;;;37.10;20.60;;;;;;;;;;4993767;28;20194;-73
2021/08/30 03:06:56;;;;;;;31.38;18.92;;;;;;;;;;5006348;28;20716;-69
2021/08/30 03:09:21;;;;;;;32.90;19.55;;;;;;;;;;4998273;28;20592;-73
2021/08/30 03:11:49;;;;;;;32.92;18.83;;;;;;;;;;5008148;28;20221;-74
2021/08/30 03:14:17;;;;;;;33.38;19.23;;;;;;;;;;5005252;28;20186;-74
2021/08/30 03:16:43;;;;;;;31.75;20.70;;;;;;;;;;5010091;28;20653;-75
2021/08/30 03:19:12;;;;;;;28.75;19.20;;;;;;;;;;5012029;28;20269;-75
2021/08/30 03:21:38;;;;;;;30.77;19.00;;;;;;;;;;5004883;28;20209;-74
2021/08/30 03:24:04;;;;;;;28.27;19.27;;;;;;;;;;5011542;28;20190;-75
2021/08/30 03:26:30;;;;;;;35.08;20.15;;;;;;;;;;5002890;28;20674;-74
2021/08/30 03:28:56;;;;;;;37.53;21.20;;;;;;;;;;5012603;28;20192;-71
2021/08/30 03:31:24;;;;;;;37.38;21.40;;;;;;;;;;5003244;28;20282;-73
2021/08/30 03:33:49;;;;;;;33.30;19.98;;;;;;;;;;5013402;28;20237;-74
2021/08/30 03:36:15;;;;;;;36.42;21.67;;;;;;;;;;5003848;28;20194;-73
2021/08/30 03:38:41;;;;;;;37.40;21.98;;;;;;;;;;5014200;28;20174;-73
2021/08/30 03:41:07;;;;;;;33.10;22.13;;;;;;;;;;5004903;28;23767;-72
2021/08/30 03:43:33;;;;;;;37.95;22.48;;;;;;;;;;5017435;28;20237;-73
2021/08/30 03:45:59;;;;;;;37.25;22.25;;;;;;;;;;5005302;28;20191;-73
2021/08/30 03:48:26;;;;;;;42.33;23.45;;;;;;;;;;5015138;28;20198;-73
2021/08/30 03:50:53;;;;;;;38.08;23.27;;;;;;;;;;5001728;28;20187;-73
2021/08/30 03:53:21;;;;;;;42.97;23.35;;;;;;;;;;5009740;28;20714;-73
2021/08/30 03:55:47;;;;;;;40.08;23.20;;;;;;;;;;5009245;28;20214;-73
2021/08/30 03:58:14;;;;;;;40.22;23.75;;;;;;;;;;5005720;28;20716;-72
2021/08/30 04:00:41;;;;;;;44.92;24.08;;;;;;;;;;5011122;28;20269;-73
2021/08/30 04:03:08;;;;;;;40.97;24.05;;;;;;;;;;5003745;28;20231;-73
2021/08/30 04:05:35;;;;;;;44.13;24.63;;;;;;;;;;5012381;28;20193;-72
2021/08/30 04:08:01;;;;;;;43.53;25.02;;;;;;;;;;5008261;28;20298;-74
2021/08/30 04:10:28;;;;;;;44.08;25.27;;;;;;;;;;5011598;28;20277;-74
2021/08/30 04:12:55;;;;;;;46.85;24.25;;;;;;;;;;5005722;28;20179;-73
2021/08/30 04:15:22;;;;;;;46.47;24.00;;;;;;;;;;5011896;28;20669;-73
2021/08/30 04:17:48;;;;;;;45.03;24.67;;;;;;;;;;5006991;28;20252;-73
2021/08/30 04:20:13;;;;;;;40.75;24.08;;;;;;;;;;5010898;28;20635;-74
2021/08/30 04:22:39;;;;;;;47.17;25.52;;;;;;;;;;5003469;28;20205;-74
2021/08/30 04:25:04;;;;;;;49.70;25.98;;;;;;;;;;5008728;28;20214;-74
2021/08/30 04:27:30;;;;;;;50.63;27.58;;;;;;;;;;5012813;28;20594;-73
2021/08/30 04:29:55;;;;;;;43.33;27.75;;;;;;;;;;5005144;28;20253;-71
2021/08/30 04:32:21;;;;;;;52.67;27.58;;;;;;;;;;5006860;28;20553;-73
2021/08/30 04:34:46;;;;;;;53.88;27.05;;;;;;;;;;4996452;28;20245;-73
2021/08/30 04:37:11;;;;;;;51.88;27.98;;;;;;;;;;5005972;28;20180;-73
2021/08/30 04:39:37;;;;;;;51.05;27.83;;;;;;;;;;4996721;28;20293;-73
2021/08/30 04:42:05;;;;;;;59.22;30.73;;;;;;;;;;5009130;28;20194;-73
2021/08/30 04:44:30;;;;;;;55.40;29.77;;;;;;;;;;4999716;28;20189;-73
2021/08/30 04:46:55;;;;;;;60.45;31.00;;;;;;;;;;5012695;28;20293;-73
2021/08/30 04:49:21;;;;;;;55.83;30.48;;;;;;;;;;4999835;28;20186;-74
2021/08/30 04:51:46;;;;;;;52.28;30.30;;;;;;;;;;5006798;28;20198;-74
2021/08/30 04:54:11;;;;;;;62.00;31.35;;;;;;;;;;4996942;28;20195;-73
2021/08/30 04:56:37;;;;;;;61.22;31.08;;;;;;;;;;5008905;28;20213;-75
2021/08/30 04:59:02;;;;;;;61.80;30.67;;;;;;;;;;5003337;28;20210;-73
2021/08/30 05:01:27;;;;;;;60.65;30.67;;;;;;;;;;5004310;28;20249;-73
2021/08/30 05:03:53;;;;;;;66.30;32.47;;;;;;;;;;5005270;28;20248;-73
2021/08/30 05:06:19;;;;;;;58.08;31.58;;;;;;;;;;4998867;28;20191;-72
2021/08/30 05:08:44;;;;;;;61.67;32.83;;;;;;;;;;5004309;28;20237;-73
2021/08/30 05:11:09;;;;;;;63.78;32.97;;;;;;;;;;5001093;28;20191;-74
2021/08/30 05:13:36;;;;;;;62.90;32.50;;;;;;;;;;5003640;28;20651;-73
2021/08/30 05:16:02;;;;;;;61.75;31.40;;;;;;;;;;5000099;28;20253;-75
2021/08/30 05:18:28;;;;;;;63.67;33.22;;;;;;;;;;5004249;28;20186;-73
2021/08/30 05:20:53;;;;;;;60.13;31.83;;;;;;;;;;5000382;28;20623;-74
2021/08/30 05:23:19;;;;;;;56.22;30.83;;;;;;;;;;5003203;28;20194;-74
2021/08/30 05:25:44;;;;;;;53.13;30.20;;;;;;;;;;4999595;28;20202;-72
2021/08/30 05:28:10;;;;;;;62.17;30.52;;;;;;;;;;5007263;28;20288;-73
2021/08/30 05:30:36;;;;;;;53.47;30.50;;;;;;;;;;5013045;28;20183;-75
2021/08/30 05:33:01;;;;;;;58.88;30.88;;;;;;;;;;4997047;28;20245;-73
2021/08/30 05:35:27;;;;;;;55.67;29.15;;;;;;;;;;5010134;28;20198;-73
2021/08/30 05:37:52;;;;;;;56.35;30.23;;;;;;;;;;4999483;28;20201;-74
2021/08/30 05:40:17;;;;;;;54.75;30.80;;;;;;;;;;5008404;28;20692;-71
2021/08/30 05:42:43;;;;;;;55.70;30.73;;;;;;;;;;4998053;28;20287;-72
2021/08/30 05:45:09;;;;;;;52.70;30.98;;;;;;;;;;5010469;28;20555;-73
2021/08/30 05:47:34;;;;;;;58.65;30.83;;;;;;;;;;4999564;28;20306;-73
2021/08/30 05:49:59;;;;;;;58.75;31.38;;;;;;;;;;5005914;28;20179;-72
2021/08/30 05:52:25;;;;;;;54.97;29.38;;;;;;;;;;4997602;28;20185;-73
2021/08/30 05:54:51;;;;;;;55.97;28.92;;;;;;;;;;5006897;28;20220;-72
2021/08/30 05:57:16;;;;;;;53.75;29.15;;;;;;;;;;4999474;28;20278;-74
2021/08/30 05:59:42;;;;;;;49.72;28.83;;;;;;;;;;5015251;28;20601;-72
2021/08/30 06:02:07;;;;;;;47.17;27.40;;;;;;;;;;5007342;28;20616;-73
2021/08/30 06:04:32;;;;;;;46.85;28.05;;;;;;;;;;4997402;28;20237;-69
2021/08/30 06:06:58;;;;;;;50.63;28.98;;;;;;;;;;5007982;28;20207;-72
2021/08/30 06:09:23;;;;;;;48.13;26.95;;;;;;;;;;5004082;28;20187;-72
2021/08/30 06:11:50;;;;;;;59.50;27.60;;;;;;;;;;5006937;28;20179;-73
2021/08/30 06:14:16;;;;;;;43.35;26.13;;;;;;;;;;5000329;28;20197;-72
2021/08/30 06:16:41;;;;;;;49.42;27.35;;;;;;;;;;5006427;28;20194;-72
2021/08/30 06:19:06;;;;;;;44.13;27.15;;;;;;;;;;5000003;28;20204;-73
2021/08/30 06:21:32;;;;;;;43.13;25.02;;;;;;;;;;5008169;28;20225;-72
2021/08/30 06:23:58;;;;;;;40.58;24.50;;;;;;;;;;4999291;28;20187;-73
2021/08/30 06:26:23;;;;;;;51.20;25.73;;;;;;;;;;5002258;28;20199;-72
2021/08/30 06:28:48;;;;;;;38.55;23.58;;;;;;;;;;5007130;28;20615;-70
2021/08/30 06:31:14;;;;;;;42.72;24.58;;;;;;;;;;4996400;28;20596;-72
2021/08/30 06:33:39;;;;;;;42.22;23.58;;;;;;;;;;5008987;28;20634;-69
2021/08/30 06:36:05;;;;;;;50.25;24.20;;;;;;;;;;4999694;28;20186;-73
2021/08/30 06:38:30;;;;;;;44.05;24.65;;;;;;;;;;5008869;28;20245;-74
2021/08/30 06:40:56;;;;;;;43.47;23.40;;;;;;;;;;4990879;28;22820;-74
2021/08/30 06:43:21;;;;;;;39.83;23.23;;;;;;;;;;5007922;28;20175;-73
2021/08/30 06:45:47;;;;;;;39.92;21.50;;;;;;;;;;4996528;28;20187;-73
2021/08/30 06:48:12;;;;;;;36.50;20.77;;;;;;;;;;5009038;28;20198;-73
2021/08/30 06:50:37;;;;;;;44.97;21.27;;;;;;;;;;4997332;28;20199;-76
2021/08/30 06:53:03;;;;;;;31.10;19.35;;;;;;;;;;5008292;28;20237;-73
2021/08/30 06:55:28;;;;;;;37.08;20.55;;;;;;;;;;4998280;28;20198;-73
2021/08/30 06:57:53;;;;;;;27.50;19.00;;;;;;;;;;5001999;28;20211;-73
2021/08/30 07:00:19;;;;;;;31.95;19.30;;;;;;;;;;5002659;28;20199;-76
2021/08/30 07:02:45;;;;;;;30.67;19.15;;;;;;;;;;5003803;28;20250;-75
2021/08/30 07:05:11;;;;;;;36.33;18.52;;;;;;;;;;4999395;28;20193;-75
2021/08/30 07:07:36;;;;;;;30.70;18.73;;;;;;;;;;4997964;28;20206;-75
2021/08/30 07:10:02;;;;;;;38.95;20.55;;;;;;;;;;5005118;28;20704;-74
2021/08/30 07:12:28;;;;;;;36.00;17.83;;;;;;;;;;4999280;28;20190;-74
2021/08/30 07:14:53;;;;;;;33.63;18.95;;;;;;;;;;5002520;28;20232;-74
2021/08/30 07:17:19;;;;;;;32.78;19.67;;;;;;;;;;4999019;28;20194;-75
2021/08/30 07:19:45;;;;;;;30.20;18.67;;;;;;;;;;5003799;28;20277;-73
2021/08/30 07:22:11;;;;;;;29.02;18.33;;;;;;;;;;4995409;28;20670;-72
2021/08/30 07:24:36;;;;;;;32.70;18.58;;;;;;;;;;5004970;28;20289;-68
2021/08/30 07:27:03;;;;;;;27.52;18.40;;;;;;;;;;4999304;28;20202;-75
2021/08/30 07:29:29;;;;;;;25.15;17.05;;;;;;;;;;5006290;28;20197;-70
2021/08/30 07:31:54;;;;;;;25.73;16.98;;;;;;;;;;5006984;28;20195;-72
2021/08/30 07:34:19;;;;;;;28.45;17.75;;;;;;;;;;4996569;28;20199;-73
2021/08/30 07:36:45;;;;;;;27.73;17.20;;;;;;;;;;5006898;28;20301;-74
2021/08/30 07:39:10;;;;;;;31.02;16.50;;;;;;;;;;4997806;28;20264;-73
2021/08/30 07:41:36;;;;;;;23.60;16.08;;;;;;;;;;5006486;28;20589;-73
2021/08/30 07:44:01;;;;;;;26.70;16.35;;;;;;;;;;4999207;28;20281;-67
2021/08/30 07:46:26;;;;;;;22.00;16.20;;;;;;;;;;5005652;28;20205;-69
2021/08/30 07:48:52;;;;;;;24.08;15.57;;;;;;;;;;4998233;28;20569;-72
2021/08/30 07:51:19;;;;;;;22.85;15.32;;;;;;;;;;5007344;28;20277;-71
2021/08/30 07:53:44;;;;;;;24.45;15.63;;;;;;;;;;4996004;28;20190;-74
2021/08/30 07:56:10;;;;;;;26.42;16.63;;;;;;;;;;5002526;28;20201;-73
2021/08/30 07:58:36;;;;;;;27.83;17.20;;;;;;;;;;5001422;28;20206;-73
2021/08/30 08:01:01;;;;;;;27.63;17.25;;;;;;;;;;5009880;28;20198;-73
2021/08/30 08:03:26;;;;;;;23.42;16.52;;;;;;;;;;5000546;28;20210;-71
2021/08/30 08:05:52;;;;;;;23.80;15.95;;;;;;;;;;5005586;28;20195;-70
2021/08/30 08:08:17;;;;;;;22.90;15.30;;;;;;;;;;5008472;28;20222;-70
2021/08/30 08:10:43;;;;;;;21.08;14.85;;;;;;;;;;5002817;28;20248;-73
2021/08/30 08:13:10;;;;;;;21.35;14.88;;;;;;;;;;5006193;28;20178;-70
2021/08/30 08:15:35;;;;;;;23.05;15.20;;;;;;;;;;5002836;28;20183;-71
2021/08/30 08:18:01;;;;;;;22.27;14.15;;;;;;;;;;5007806;28;20213;-69
2021/08/30 08:20:27;;;;;;;18.35;13.70;;;;;;;;;;4999836;28;20233;-74
2021/08/30 08:22:53;;;;;;;19.55;14.35;;;;;;;;;;5007625;28;20277;-69
2021/08/30 08:25:18;;;;;;;18.90;13.82;;;;;;;;;;5001728;28;20273;-72
2021/08/30 08:27:44;;;;;;;19.23;13.60;;;;;;;;;;5009751;28;20578;-70
2021/08/30 08:30:09;;;;;;;17.40;13.52;;;;;;;;;;5000906;28;20603;-71
2021/08/30 08:32:35;;;;;;;20.00;12.30;;;;;;;;;;5007730;28;20198;-71
2021/08/30 08:35:01;;;;;;;18.67;13.00;;;;;;;;;;4999968;28;20179;-70
2021/08/30 08:37:26;;;;;;;15.45;11.75;;;;;;;;;;5009352;28;20182;-69
2021/08/30 08:39:52;;;;;;;19.20;12.27;;;;;;;;;;5011491;28;20189;-67
2021/08/30 08:42:17;;;;;;;17.98;11.90;;;;;;;;;;4999085;28;20568;-70
2021/08/30 08:44:46;;;;;;;16.33;12.07;;;;;;;;;;5009467;28;20232;-71
2021/08/30 08:47:15;;;;;;;17.77;11.82;;;;;;;;;;4999705;28;21026;-68
2021/08/30 08:49:41;;;;;;;14.90;11.90;;;;;;;;;;5010555;28;20187;-72
2021/08/30 08:52:06;;;;;;;15.55;11.82;;;;;;;;;;4999789;28;20193;-74
2021/08/30 08:54:31;;;;;;;16.40;12.25;;;;;;;;;;5007624;28;20190;-75
2021/08/30 08:56:57;;;;;;;15.15;11.00;;;;;;;;;;5000417;28;20194;-73
2021/08/30 08:59:23;;;;;;;16.90;11.07;;;;;;;;;;5009202;28;20230;-71
2021/08/30 09:01:59;;;;;;;14.18;10.77;;;;;;;;;;4999637;28;20257;-69
2021/08/30 09:04:35;;;;;;;14.23;9.93;;;;;;;;;;5009840;28;20242;-72
2021/08/30 09:07:10;;;;;;;11.57;9.95;;;;;;;;;;5016333;28;20226;-68
2021/08/30 09:09:37;;;;;;;19.40;10.85;;;;;;;;;;5006153;28;20218;-70
2021/08/30 09:12:03;;;;;;;14.45;10.75;;;;;;;;;;5001263;28;20190;-69
2021/08/30 09:14:29;;;;;;;16.30;11.10;;;;;;;;;;5007412;28;20561;-72
2021/08/30 09:17:07;;;;;;;17.33;11.98;;;;;;;;;;5002719;28;20183;-73
2021/08/30 09:19:33;;;;;;;14.88;11.77;;;;;;;;;;5008731;28;20673;-71
2021/08/30 09:22:00;;;;;;;14.13;10.70;;;;;;;;;;5007465;28;20190;-69
2021/08/30 09:24:26;;;;;;;16.25;11.23;;;;;;;;;;4999187;28;20269;-72
2021/08/30 09:27:05;;;;;;;14.30;10.52;;;;;;;;;;5007134;28;20191;-68
2021/08/30 09:29:39;;;;;;;14.02;9.73;;;;;;;;;;4999486;28;20186;-73
2021/08/30 09:32:10;;;;;;;14.32;10.07;;;;;;;;;;5008725;28;20179;-73
2021/08/30 09:34:39;;;;;;;16.73;9.98;;;;;;;;;;5000995;28;20187;-73
2021/08/30 09:37:12;;;;;;;12.98;10.00;;;;;;;;;;5007888;28;20175;-70
2021/08/30 09:39:44;;;;;;;13.85;9.73;;;;;;;;;;5000802;28;20786;-73
2021/08/30 09:42:11;;;;;;;14.15;10.23;;;;;;;;;;5008842;28;20194;-69
2021/08/30 09:44:37;;;;;;;12.13;10.15;;;;;;;;;;5000178;28;20187;-72
2021/08/30 09:47:10;;;;;;;14.50;10.52;;;;;;;;;;5010034;28;20209;-72
2021/08/30 09:49:36;;;;;;;15.15;10.48;;;;;;;;;;4999258;28;20198;-72
2021/08/30 09:52:02;;;;;;;16.30;10.48;;;;;;;;;;5009587;28;20661;-69
2021/08/30 09:54:28;;;;;;;15.15;9.77;;;;;;;;;;4999588;28;20825;-74
2021/08/30 09:56:54;;;;;;;15.68;10.25;;;;;;;;;;5004167;28;20261;-71
2021/08/30 09:59:21;;;;;;;14.20;10.18;;;;;;;;;;4998287;28;20198;-68
2021/08/30 10:01:48;;;;;;;13.65;10.02;;;;;;;;;;5008436;28;20219;-70
2021/08/30 10:04:18;;;;;;;14.43;9.88;;;;;;;;;;5005149;28;20205;-70
2021/08/30 10:06:44;;;;;;;13.02;10.23;;;;;;;;;;5000974;28;20183;-70
2021/08/30 10:09:12;;;;;;;15.00;10.13;;;;;;;;;;5008326;28;20191;-74
2021/08/30 10:11:39;;;;;;;13.45;9.73;;;;;;;;;;4996494;28;20215;-69
2021/08/30 10:14:06;;;;;;;13.20;9.77;;;;;;;;;;5006232;28;20191;-68
2021/08/30 10:16:33;;;;;;;12.40;9.80;;;;;;;;;;4996662;28;20202;-72
2021/08/30 10:18:59;;;;;;;12.10;9.75;;;;;;;;;;5003516;28;20214;-69
2021/08/30 10:21:27;;;;;;;12.95;10.18;;;;;;;;;;5000029;28;20214;-71
2021/08/30 10:23:52;;;;;;;14.10;9.65;;;;;;;;;;5007578;28;20675;-69
2021/08/30 10:26:19;;;;;;;11.63;8.02;;;;;;;;;;4999937;28;20284;-71
2021/08/30 10:28:48;;;;;;;9.98;8.98;;;;;;;;;;5002833;28;20713;-70
2021/08/30 10:31:19;;;;;;;11.52;8.65;;;;;;;;;;4995126;28;20186;-72
2021/08/30 10:33:49;;;;;;;10.13;8.82;;;;;;;;;;5006045;28;20630;-70
2021/08/30 10:36:17;;;;;;;9.23;8.18;;;;;;;;;;4998386;28;20191;-67
2021/08/30 10:38:42;;;;;;;11.95;8.77;;;;;;;;;;5007427;28;20615;-72
2021/08/30 10:41:18;;;;;;;9.93;7.97;;;;;;;;;;5006944;28;20274;-69
2021/08/30 10:43:44;;;;;;;10.20;8.27;;;;;;;;;;5004255;28;20187;-70
2021/08/30 10:46:17;;;;;;;12.77;8.90;;;;;;;;;;5004540;28;20262;-71
2021/08/30 10:48:52;;;;;;;13.65;8.75;;;;;;;;;;4993844;28;20521;-73
2021/08/30 10:51:20;;;;;;;11.02;8.27;;;;;;;;;;5004915;28;20229;-70
2021/08/30 10:53:56;;;;;;;13.55;9.00;;;;;;;;;;4997403;28;20198;-73
2021/08/30 10:56:27;;;;;;;14.57;8.73;;;;;;;;;;5003161;28;20644;-73
2021/08/30 10:58:53;;;;;;;11.98;9.05;;;;;;;;;;4992562;28;20206;-71
2021/08/30 11:01:18;;;;;;;11.55;8.15;;;;;;;;;;5004841;28;20275;-70
2021/08/30 11:03:54;;;;;;;10.98;8.27;;;;;;;;;;4995521;28;20671;-67
2021/08/30 11:06:19;;;;;;;10.70;8.65;;;;;;;;;;5002036;28;20213;-70
2021/08/30 11:08:44;;;;;;;10.52;7.57;;;;;;;;;;4997513;28;20653;-72
2021/08/30 11:11:15;;;;;;;9.75;7.32;;;;;;;;;;5005687;28;20189;-72
2021/08/30 11:13:44;;;;;;;9.70;7.28;;;;;;;;;;4998164;28;20236;-66
2021/08/30 11:16:18;;;;;;;10.40;7.60;;;;;;;;;;5001630;28;20191;-69
2021/08/30 11:19:10;;;;;;;8.73;6.72;;;;;;;;;;4997398;28;20740;-71
2021/08/30 11:21:37;;;;;;;12.05;7.78;;;;;;;;;;5006616;28;20514;-72
2021/08/30 11:24:05;;;;;;;9.25;6.47;;;;;;;;;;4996812;28;20225;-70
2021/08/30 11:26:31;;;;;;;8.48;6.78;;;;;;;;;;5004799;28;20213;-72
2021/08/30 11:29:06;;;;;;;9.88;7.30;;;;;;;;;;4996603;28;20248;-69
2021/08/30 11:31:35;;;;;;;10.50;7.70;;;;;;;;;;5004447;28;20186;-72
2021/08/30 11:34:01;;;;;;;8.77;7.22;;;;;;;;;;4998161;28;20570;-74
2021/08/30 11:36:26;;;;;;;15.07;7.00;;;;;;;;;;5007103;28;20186;-71
2021/08/30 11:38:52;;;;;;;7.82;6.55;;;;;;;;;;5009568;28;20183;-69
2021/08/30 11:41:19;;;;;;;11.07;6.57;;;;;;;;;;5000907;28;20182;-72
2021/08/30 11:43:44;;;;;;;8.88;7.07;;;;;;;;;;5008757;28;20241;-71
2021/08/30 11:46:10;;;;;;;23.40;8.43;;;;;;;;;;4999742;28;20289;-72
2021/08/30 11:48:35;;;;;;;9.27;7.47;;;;;;;;;;5012263;28;20202;-73
2021/08/30 11:51:04;;;;;;;10.38;7.32;;;;;;;;;;5002250;28;20276;-70
2021/08/30 11:53:31;;;;;;;11.18;7.93;;;;;;;;;;5007487;28;20192;-71
2021/08/30 11:55:56;;;;;;;9.00;7.60;;;;;;;;;;4999687;28;20658;-69
2021/08/30 11:58:33;;;;;;;8.93;7.20;;;;;;;;;;5008441;28;20213;-72
2021/08/30 12:01:06;;;;;;;9.75;7.60;;;;;;;;;;5002238;28;20705;-72
2021/08/30 12:03:43;;;;;;;10.40;7.55;;;;;;;;;;5009968;28;20202;-70
2021/08/30 12:06:20;;;;;;;9.30;7.25;;;;;;;;;;5001204;28;20280;-69
2021/08/30 12:08:50;;;;;;;7.88;6.80;;;;;;;;;;5009218;28;20240;-72
2021/08/30 12:11:16;;;;;;;9.07;7.28;;;;;;;;;;4999845;28;20225;-71
2021/08/30 12:13:56;;;;;;;11.55;7.18;;;;;;;;;;5010675;28;20206;-69
2021/08/30 12:16:23;;;;;;;10.00;7.05;;;;;;;;;;4307791;28;10000723;-73
2021/08/30 12:18:55;;;;;;;8.98;7.07;;;;;;;;;;5003526;28;20599;-76
2021/08/30 12:21:31;;;;;;;9.07;6.70;;;;;;;;;;5004516;28;20542;-66
2021/08/30 12:23:57;;;;;;;9.13;6.20;;;;;;;;;;5003533;28;20282;-74
2021/08/30 12:26:22;;;;;;;7.47;5.68;;;;;;;;;;5008127;28;20283;-66
2021/08/30 12:28:53;;;;;;;6.85;6.05;;;;;;;;;;4997326;28;20210;-68
2021/08/30 12:31:26;;;;;;;12.40;6.78;;;;;;;;;;5004835;28;20214;-68
2021/08/30 12:34:10;;;;;;;8.00;6.40;;;;;;;;;;4994763;28;20198;-71
2021/08/30 12:36:36;;;;;;;8.80;6.13;;;;;;;;;;5008083;28;20676;-71
2021/08/30 12:39:04;;;;;;;9.00;5.97;;;;;;;;;;4997482;28;20183;-74
2021/08/30 12:41:30;;;;;;;9.05;6.35;;;;;;;;;;5007005;28;20685;-67
2021/08/30 12:43:55;;;;;;;8.55;6.70;;;;;;;;;;4995717;28;20203;-68
2021/08/30 12:46:21;;;;;;;7.63;5.97;;;;;;;;;;5006035;28;20195;-70
2021/08/30 12:48:46;;;;;;;9.25;6.32;;;;;;;;;;4997900;28;20226;-71
2021/08/30 12:51:13;;;;;;;8.15;6.18;;;;;;;;;;5006826;28;20189;-69
2021/08/30 12:53:39;;;;;;;9.38;5.53;;;;;;;;;;4996573;28;20195;-71
2021/08/30 12:56:05;;;;;;;8.43;5.38;;;;;;;;;;5003533;28;20688;-69
2021/08/30 12:58:30;;;;;;;8.48;6.32;;;;;;;;;;4995511;28;20203;-71
2021/08/30 13:00:57;;;;;;;10.30;6.07;;;;;;;;;;5003383;28;20201;-73
2021/08/30 13:03:23;;;;;;;8.77;6.30;;;;;;;;;;4997533;28;20217;-69
2021/08/30 13:05:48;;;;;;;8.50;6.30;;;;;;;;;;5001799;28;20297;-71
2021/08/30 13:08:15;;;;;;;7.47;6.25;;;;;;;;;;5003464;28;20291;-72
2021/08/30 13:10:42;;;;;;;8.70;6.05;;;;;;;;;;4994952;28;20482;-71
2021/08/30 13:13:09;;;;;;;6.97;5.97;;;;;;;;;;5006704;28;20680;-67
2021/08/30 13:15:36;;;;;;;9.50;6.10;;;;;;;;;;4993101;28;20623;-72
2021/08/30 13:18:02;;;;;;;9.85;5.90;;;;;;;;;;5001133;28;20540;-72
2021/08/30 13:20:28;;;;;;;8.75;5.70;;;;;;;;;;4998209;28;20253;-69
2021/08/30 13:22:53;;;;;;;7.63;5.97;;;;;;;;;;5006563;28;20578;-69
2021/08/30 13:25:21;;;;;;;7.60;6.40;;;;;;;;;;4997299;28;20194;-69
2021/08/30 13:27:52;;;;;;;8.20;6.35;;;;;;;;;;5001882;28;20210;-73
2021/08/30 13:30:20;;;;;;;7.60;6.05;;;;;;;;;;4994938;28;20199;-70
2021/08/30 13:32:47;;;;;;;7.65;5.63;;;;;;;;;;5004046;28;20195;-72
2021/08/30 13:35:13;;;;;;;9.65;6.25;;;;;;;;;;4996186;28;20245;-69
2021/08/30 13:37:40;;;;;;;7.75;6.60;;;;;;;;;;5004413;28;20584;-69
2021/08/30 13:40:06;;;;;;;7.70;6.78;;;;;;;;;;5005941;28;20201;-70
2021/08/30 13:42:32;;;;;;;9.82;5.80;;;;;;;;;;4994778;28;20263;-69
2021/08/30 13:44:57;;;;;;;6.28;5.43;;;;;;;;;;4995790;28;20203;-71
2021/08/30 13:47:22;;;;;;;7.78;5.45;;;;;;;;;;4994443;28;20578;-74
2021/08/30 13:49:49;;;;;;;9.25;6.00;;;;;;;;;;5001736;28;20190;-71
2021/08/30 13:52:14;;;;;;;7.28;6.15;;;;;;;;;;4994833;28;20208;-73
2021/08/30 13:54:40;;;;;;;7.68;6.25;;;;;;;;;;5005062;28;20191;-71
2021/08/30 13:57:05;;;;;;;9.55;6.10;;;;;;;;;;4995148;28;20182;-67
2021/08/30 13:59:31;;;;;;;9.00;6.30;;;;;;;;;;5004899;28;20372;-71
2021/08/30 14:01:57;;;;;;;8.30;5.95;;;;;;;;;;4999288;28;20226;-72
2021/08/30 14:04:22;;;;;;;7.35;6.00;;;;;;;;;;5006902;28;20193;-67
2021/08/30 14:06:48;;;;;;;7.75;5.85;;;;;;;;;;4998352;28;20190;-74
2021/08/30 14:09:13;;;;;;;7.03;5.93;;;;;;;;;;5006150;28;20742;-71
2021/08/30 14:11:39;;;;;;;8.18;6.60;;;;;;;;;;5006071;28;20197;-69
2021/08/30 14:14:04;;;;;;;11.13;6.38;;;;;;;;;;4996104;28;20195;-66
2021/08/30 14:16:29;;;;;;;7.13;5.65;;;;;;;;;;5005942;28;20198;-70
2021/08/30 14:18:55;;;;;;;7.32;6.00;;;;;;;;;;4995583;28;20261;-71
2021/08/30 14:21:20;;;;;;;8.77;6.30;;;;;;;;;;5007204;28;20302;-70
2021/08/30 14:23:46;;;;;;;9.45;5.60;;;;;;;;;;4998089;28;20633;-70
2021/08/30 14:26:11;;;;;;;6.72;5.90;;;;;;;;;;5002870;28;20606;-68